Bostic Yard, North Carolina
Current Conditions -  °F | °C
As of 6:35 AM on Saturday 20 Dec 2014 (Local Time) from KFQD Reporting Station
Moderate Rain Moderate Rain  
Wind Chill: 36°   Ceiling: 4900
Heat Index: 39°   Visibility: 10mi
Dew Point: 35°   Wind: 5mph
Humidity: 83%   Direction: 40°NE
Pressure: 30.2"   Gusts: NA
Location:  35.4977°N, 81.7958°W
Report Text: KFQD 201135Z AUTO 04004KT 10SM RA SCT033 BKN049 OVC070 04/01 A3020 RMK AO2 T00400014
Loading
Personal Weather Stations






























Interactive Weather Map New forecast layout! Learn more

10-Day Weather Forecast

Advertisements
Track Severe Weather on mobile